createdAt,value
2023-02-18T00:02:29.868Z,2.85
2023-02-18T00:05:00.140Z,2.90
2023-02-18T00:07:31.312Z,2.90
2023-02-18T00:10:01.551Z,2.58
2023-02-18T00:12:33.744Z,2.53
2023-02-18T00:15:04.126Z,2.72
2023-02-18T00:17:34.874Z,2.75
2023-02-18T00:20:05.927Z,2.67
2023-02-18T00:22:36.726Z,2.08
2023-02-18T00:25:07.262Z,2.70
2023-02-18T00:27:37.602Z,2.50
2023-02-18T00:30:08.720Z,2.90
2023-02-18T00:32:39.237Z,2.80
2023-02-18T00:35:09.992Z,2.78
2023-02-18T00:37:40.699Z,2.38
2023-02-18T00:40:11.551Z,2.60
2023-02-18T00:42:42.025Z,2.60
2023-02-18T00:45:12.639Z,2.65
2023-02-18T00:47:43.317Z,2.58
2023-02-18T00:50:13.902Z,2.47
2023-02-18T00:52:44.204Z,2.65
2023-02-18T00:55:14.436Z,2.63
2023-02-18T00:57:44.691Z,2.72
2023-02-18T01:00:15.428Z,2.40
2023-02-18T01:02:45.962Z,2.42
2023-02-18T01:05:16.288Z,2.80
2023-02-18T01:07:46.588Z,2.65
2023-02-18T01:10:19.071Z,2.35
2023-02-18T01:12:49.600Z,2.42
2023-02-18T01:15:20.272Z,2.40
2023-02-18T01:17:53.553Z,2.20
2023-02-18T01:20:23.891Z,2.40
2023-02-18T01:22:55.087Z,2.20
2023-02-18T01:25:25.462Z,2.30
2023-02-18T01:27:55.858Z,2.00
2023-02-18T01:30:26.772Z,2.42
2023-02-18T01:32:58.391Z,2.05
2023-02-18T01:35:29.132Z,2.75
2023-02-18T01:37:59.642Z,2.63
2023-02-18T01:40:32.074Z,2.13
2023-02-18T01:43:02.689Z,2.80
2023-02-18T01:45:43.952Z,2.00
2023-02-18T01:48:26.703Z,2.22
2023-02-18T01:51:03.068Z,2.10
2023-02-18T01:54:03.232Z,2.53
2023-02-18T01:56:46.319Z,2.50
2023-02-18T01:59:26.389Z,2.20
2023-02-18T02:01:57.975Z,2.45
2023-02-18T02:04:28.605Z,2.00
2023-02-18T02:06:58.890Z,2.35
2023-02-18T02:09:31.711Z,2.20
2023-02-18T02:12:27.725Z,2.20
2023-02-18T02:15:10.007Z,2.00
2023-02-18T02:17:50.650Z,1.90
2023-02-18T02:20:46.445Z,2.30
2023-02-18T02:23:34.596Z,2.42
2023-02-18T02:26:38.021Z,2.15
2023-02-18T02:29:17.566Z,2.40
2023-02-18T02:32:03.701Z,2.17
2023-02-18T02:34:55.207Z,1.85
2023-02-18T02:37:34.352Z,1.83
2023-02-18T02:40:22.483Z,2.15
2023-02-18T02:43:06.932Z,1.77
2023-02-18T02:45:56.877Z,1.92
2023-02-18T02:49:08.141Z,1.92
2023-02-18T02:51:47.643Z,2.13
2023-02-18T02:54:27.290Z,2.10
2023-02-18T02:57:32.130Z,2.28
2023-02-18T03:00:11.738Z,2.20
2023-02-18T03:02:47.986Z,2.58
2023-02-18T03:06:18.591Z,2.03
2023-02-18T03:09:09.235Z,2.25
2023-02-18T03:11:49.830Z,2.55
2023-02-18T03:14:49.038Z,2.33
2023-02-18T03:17:37.813Z,2.20
2023-02-18T03:20:21.302Z,2.13
2023-02-18T03:22:53.621Z,2.28
2023-02-18T03:25:25.923Z,1.85
2023-02-18T03:28:00.179Z,2.05
2023-02-18T03:30:50.332Z,2.05
2023-02-18T03:33:34.757Z,1.88
2023-02-18T03:36:06.045Z,2.17
2023-02-18T03:38:42.455Z,2.13
2023-02-18T03:41:13.546Z,2.05
2023-02-18T03:43:51.559Z,1.83
2023-02-18T03:46:22.402Z,2.05
2023-02-18T03:48:53.104Z,1.70
2023-02-18T03:51:23.910Z,1.92
2023-02-18T03:53:54.273Z,2.05
2023-02-18T03:56:24.734Z,2.30
2023-02-18T03:58:55.074Z,2.28
2023-02-18T04:01:25.408Z,1.95
2023-02-18T04:03:57.226Z,1.70
2023-02-18T04:06:27.893Z,2.05
2023-02-18T04:08:58.446Z,2.00
2023-02-18T04:11:28.839Z,1.70
2023-02-18T04:13:59.121Z,2.28
2023-02-18T04:16:29.443Z,2.08
2023-02-18T04:18:59.730Z,2.30
2023-02-18T04:21:29.966Z,2.10
2023-02-18T04:24:00.386Z,1.90
2023-02-18T04:26:30.800Z,2.00
2023-02-18T04:29:01.345Z,1.83
2023-02-18T04:31:31.806Z,1.85
2023-02-18T04:34:02.258Z,1.92
2023-02-18T04:36:32.471Z,1.95
2023-02-18T04:39:03.004Z,2.03
2023-02-18T04:41:33.540Z,2.00
2023-02-18T04:44:03.893Z,1.88
2023-02-18T04:46:34.752Z,1.88
2023-02-18T04:49:05.146Z,1.98
2023-02-18T04:51:35.383Z,1.92
2023-02-18T04:54:06.426Z,2.00
2023-02-18T04:56:36.659Z,1.90
2023-02-18T04:59:06.967Z,1.88
2023-02-18T05:01:37.521Z,1.85
2023-02-18T05:04:07.837Z,2.33
2023-02-18T05:06:39.855Z,1.83
2023-02-18T05:09:10.187Z,1.63
2023-02-18T05:11:40.586Z,2.00
2023-02-18T05:14:11.320Z,1.80
2023-02-18T05:16:41.766Z,1.90
2023-02-18T05:19:15.656Z,1.80
2023-02-18T05:21:46.709Z,1.90
2023-02-18T05:24:16.969Z,1.77
2023-02-18T05:26:47.268Z,1.73
2023-02-18T05:29:17.553Z,2.10
2023-02-18T05:31:47.906Z,1.80
2023-02-18T05:34:18.353Z,1.80
2023-02-18T05:36:48.680Z,1.50
2023-02-18T05:39:18.949Z,1.83
2023-02-18T05:41:49.186Z,1.75
2023-02-18T05:44:35.080Z,1.77
2023-02-18T05:47:11.049Z,1.45
2023-02-18T05:49:43.791Z,1.95
2023-02-18T05:52:14.745Z,1.92
2023-02-18T05:54:45.327Z,1.58
2023-02-18T05:57:17.189Z,1.92
2023-02-18T05:59:47.421Z,1.98
2023-02-18T06:02:17.732Z,1.65
2023-02-18T06:04:48.099Z,1.85
2023-02-18T06:07:18.595Z,1.70
2023-02-18T06:09:49.291Z,1.77
2023-02-18T06:12:19.540Z,1.83
2023-02-18T06:14:50.166Z,1.98
2023-02-18T06:17:20.802Z,1.55
2023-02-18T06:19:51.452Z,1.67
2023-02-18T06:22:21.681Z,1.52
2023-02-18T06:24:52.003Z,1.83
2023-02-18T06:27:23.193Z,1.92
2023-02-18T06:29:53.632Z,1.58
2023-02-18T06:32:24.012Z,1.85
2023-02-18T06:34:54.511Z,1.40
2023-02-18T06:37:24.712Z,1.42
2023-02-18T06:39:55.066Z,1.70
2023-02-18T06:42:25.448Z,1.50
2023-02-18T06:44:55.758Z,1.63
2023-02-18T06:47:26.106Z,1.90
2023-02-18T06:49:56.389Z,1.50
2023-02-18T06:52:26.664Z,1.40
2023-02-18T06:54:57.025Z,1.55
2023-02-18T06:57:27.217Z,1.45
2023-02-18T06:59:57.478Z,1.85
2023-02-18T07:02:27.754Z,1.58
2023-02-18T07:04:58.092Z,1.90
2023-02-18T07:07:28.397Z,1.83
2023-02-18T07:09:58.602Z,1.63
2023-02-18T07:12:30.254Z,1.60
2023-02-18T07:15:01.939Z,1.85
2023-02-18T07:17:32.449Z,1.60
2023-02-18T07:20:02.820Z,1.80
2023-02-18T07:22:33.277Z,1.90
2023-02-18T07:25:03.707Z,1.80
2023-02-18T07:27:33.954Z,1.58
2023-02-18T07:30:04.531Z,1.60
2023-02-18T07:32:34.969Z,1.85
2023-02-18T07:35:06.536Z,1.88
2023-02-18T07:37:36.957Z,1.60
2023-02-18T07:40:08.176Z,1.40
2023-02-18T07:42:38.671Z,1.70
2023-02-18T07:45:09.277Z,1.50
2023-02-18T07:47:40.060Z,1.52
2023-02-18T07:50:11.097Z,1.40
2023-02-18T07:52:41.783Z,1.55
2023-02-18T07:55:12.394Z,1.52
2023-02-18T07:57:59.002Z,1.35
2023-02-18T08:00:29.279Z,1.30
2023-02-18T08:02:59.680Z,1.83
2023-02-18T08:05:29.913Z,1.75
2023-02-18T08:08:00.207Z,1.50
2023-02-18T08:10:31.313Z,1.45
2023-02-18T08:13:01.575Z,1.40
2023-02-18T08:15:31.823Z,1.38
2023-02-18T08:18:02.342Z,1.50
2023-02-18T08:20:32.763Z,1.85
2023-02-18T08:23:03.060Z,1.50
2023-02-18T08:25:33.845Z,1.55
2023-02-18T08:28:06.437Z,1.63
2023-02-18T08:30:38.086Z,1.40
2023-02-18T08:33:09.372Z,1.60
2023-02-18T08:35:39.689Z,1.70
2023-02-18T08:38:10.990Z,1.50
2023-02-18T08:40:42.764Z,1.55
2023-02-18T08:43:14.772Z,1.50
2023-02-18T08:45:46.972Z,1.45
2023-02-18T08:48:20.559Z,1.70
2023-02-18T08:50:51.481Z,1.40
2023-02-18T08:53:22.659Z,1.58
2023-02-18T08:55:53.744Z,1.58
2023-02-18T08:58:24.378Z,1.52
2023-02-18T09:00:55.470Z,1.65
2023-02-18T09:03:25.811Z,1.90
2023-02-18T09:05:56.331Z,1.45
2023-02-18T09:08:32.998Z,2.00
2023-02-18T09:11:07.069Z,1.42
2023-02-18T09:13:38.308Z,1.60
2023-02-18T09:16:14.436Z,1.60
2023-02-18T09:18:46.926Z,1.80
2023-02-18T09:21:20.991Z,1.38
2023-02-18T09:23:52.266Z,2.03
2023-02-18T09:26:24.720Z,1.58
2023-02-18T09:28:56.398Z,1.40
2023-02-18T09:31:28.637Z,1.70
2023-02-18T09:34:04.328Z,1.20
2023-02-18T09:36:35.121Z,1.30
2023-02-18T09:39:05.411Z,1.35
2023-02-18T09:41:40.612Z,1.50
2023-02-18T09:44:16.349Z,1.83
2023-02-18T09:47:03.831Z,2.10
2023-02-18T09:49:39.438Z,2.42
2023-02-18T09:52:35.012Z,3.13
2023-02-18T09:55:21.278Z,2.08
2023-02-18T09:58:04.321Z,1.27
2023-02-18T10:01:19.138Z,0.90
2023-02-18T10:03:49.697Z,1.38
2023-02-18T10:06:32.328Z,1.73
2023-02-18T10:09:23.166Z,2.22
2023-02-18T10:12:05.777Z,3.00
2023-02-18T10:14:37.902Z,3.53
2023-02-18T10:17:10.260Z,4.28
2023-02-18T10:19:45.232Z,4.60
2023-02-18T10:22:17.421Z,4.70
2023-02-18T10:25:02.893Z,5.07
2023-02-18T10:27:36.003Z,3.60
2023-02-18T10:30:26.025Z,2.70
2023-02-18T10:33:18.468Z,2.70
2023-02-18T10:36:04.860Z,3.88
2023-02-18T10:38:58.372Z,3.22
2023-02-18T10:41:46.779Z,3.00
2023-02-18T10:44:35.444Z,3.17
2023-02-18T10:47:20.719Z,2.80
2023-02-18T10:50:03.123Z,3.35
2023-02-18T10:52:39.542Z,3.17
2023-02-18T10:55:20.313Z,2.67
2023-02-18T10:57:59.422Z,3.00
2023-02-18T11:00:30.470Z,3.08
2023-02-18T11:03:22.957Z,3.20
2023-02-18T11:05:59.151Z,3.13
2023-02-18T11:08:41.236Z,3.25
2023-02-18T11:11:22.944Z,2.80
2023-02-18T11:13:57.927Z,2.70
2023-02-18T11:16:40.671Z,2.60
2023-02-18T11:19:35.883Z,2.97
2023-02-18T11:22:28.214Z,2.78
2023-02-18T11:25:01.243Z,2.72
2023-02-18T11:27:58.217Z,2.58
2023-02-18T11:30:46.892Z,2.80
2023-02-18T11:33:37.883Z,2.33
2023-02-18T11:36:36.700Z,2.65
2023-02-18T11:39:16.632Z,2.63
2023-02-18T11:41:59.880Z,2.65
2023-02-18T11:44:50.285Z,2.40
2023-02-18T11:47:21.689Z,2.33
2023-02-18T11:50:12.774Z,3.00
2023-02-18T11:52:48.911Z,2.50
2023-02-18T11:55:28.856Z,2.20
2023-02-18T11:58:10.266Z,2.58
2023-02-18T12:00:49.811Z,2.63
2023-02-18T12:04:07.450Z,2.50
2023-02-18T12:07:03.390Z,2.30
2023-02-18T12:09:42.577Z,2.50
2023-02-18T12:12:18.776Z,2.47
2023-02-18T12:14:49.003Z,2.30
2023-02-18T12:17:40.546Z,2.55
2023-02-18T12:20:35.514Z,3.10
2023-02-18T12:23:21.183Z,2.72
2023-02-18T12:25:57.521Z,2.97
2023-02-18T12:29:04.018Z,2.47
2023-02-18T12:31:56.828Z,2.53
2023-02-18T12:34:42.545Z,3.03
2023-02-18T12:37:48.848Z,2.70
2023-02-18T12:41:11.241Z,2.80
2023-02-18T12:43:53.974Z,2.85
2023-02-18T12:46:50.125Z,2.65
2023-02-18T12:49:55.071Z,2.75
2023-02-18T12:52:31.425Z,3.13
2023-02-18T12:55:38.222Z,2.80
2023-02-18T12:58:36.060Z,2.58
2023-02-18T13:01:42.023Z,2.97
2023-02-18T13:04:38.685Z,2.72
2023-02-18T13:07:32.838Z,3.03
2023-02-18T13:10:23.966Z,3.08
2023-02-18T13:13:27.968Z,2.88
2023-02-18T13:16:16.838Z,2.80
2023-02-18T13:18:55.847Z,2.78
2023-02-18T13:21:26.563Z,2.88
2023-02-18T13:24:13.293Z,3.13
2023-02-18T13:26:48.109Z,3.30
2023-02-18T13:29:30.341Z,3.10
2023-02-18T13:32:12.272Z,3.40
2023-02-18T13:35:10.039Z,3.38
2023-02-18T13:37:58.811Z,3.60
2023-02-18T13:40:32.282Z,3.25
2023-02-18T13:43:23.489Z,3.45
2023-02-18T13:46:16.755Z,3.40
2023-02-18T13:49:05.420Z,3.70
2023-02-18T13:51:46.433Z,3.60
2023-02-18T13:54:19.281Z,3.40
2023-02-18T13:57:05.515Z,3.60
2023-02-18T13:59:44.739Z,3.55
2023-02-18T14:02:24.124Z,3.30
2023-02-18T14:04:57.856Z,3.70
2023-02-18T14:07:30.891Z,4.15
2023-02-18T14:10:02.937Z,3.70
2023-02-18T14:12:42.235Z,3.42
2023-02-18T14:15:21.741Z,3.85
2023-02-18T14:18:08.084Z,3.30
2023-02-18T14:20:44.507Z,3.40
2023-02-18T14:23:23.689Z,3.13
2023-02-18T14:26:00.118Z,3.53
2023-02-18T14:28:41.245Z,3.17
2023-02-18T14:31:35.888Z,3.60
2023-02-18T14:34:35.957Z,3.72
2023-02-18T14:37:27.461Z,3.67
2023-02-18T14:40:08.147Z,3.33
2023-02-18T14:43:25.110Z,3.55
2023-02-18T14:46:25.089Z,3.60
2023-02-18T14:49:16.094Z,3.25
2023-02-18T14:51:49.761Z,3.15
2023-02-18T14:54:26.232Z,3.33
2023-02-18T14:57:19.425Z,3.28
2023-02-18T14:59:49.872Z,3.17
2023-02-18T15:02:26.969Z,3.80
2023-02-18T15:04:57.761Z,3.42
2023-02-18T15:07:28.259Z,3.20
2023-02-18T15:09:59.540Z,3.75
2023-02-18T15:12:30.440Z,3.30
2023-02-18T15:15:06.309Z,3.20
2023-02-18T15:17:36.633Z,3.38
2023-02-18T15:20:10.754Z,3.35
2023-02-18T15:22:41.225Z,2.85
2023-02-18T15:25:15.576Z,3.33
2023-02-18T15:27:48.583Z,3.60
2023-02-18T15:30:24.338Z,2.83
2023-02-18T15:32:57.083Z,3.60
2023-02-18T15:35:33.134Z,3.15
2023-02-18T15:38:06.216Z,3.20
2023-02-18T15:40:39.597Z,3.17
2023-02-18T15:43:11.135Z,3.55
2023-02-18T15:45:46.933Z,2.95
2023-02-18T15:48:34.843Z,3.42
2023-02-18T15:51:17.877Z,2.95
2023-02-18T15:53:55.085Z,2.70
2023-02-18T15:56:38.206Z,3.30
2023-02-18T15:59:28.342Z,3.55
2023-02-18T16:02:18.409Z,3.05
2023-02-18T16:05:04.992Z,2.90
2023-02-18T16:07:51.881Z,2.83
2023-02-18T16:10:27.282Z,3.30
2023-02-18T16:13:02.136Z,3.10
2023-02-18T16:15:39.490Z,3.20
2023-02-18T16:18:22.842Z,3.05
2023-02-18T16:21:06.000Z,2.80
2023-02-18T16:23:45.952Z,2.83
2023-02-18T16:26:29.887Z,3.03
2023-02-18T16:29:14.106Z,3.13
2023-02-18T16:31:45.530Z,3.33
2023-02-18T16:34:18.347Z,2.95
2023-02-18T16:37:07.515Z,3.15
2023-02-18T16:39:38.423Z,2.50
2023-02-18T16:42:15.673Z,3.10
2023-02-18T16:44:45.962Z,2.97
2023-02-18T16:47:19.149Z,3.00
2023-02-18T16:49:52.264Z,3.00
2023-02-18T16:52:22.555Z,2.85
2023-02-18T16:54:54.993Z,2.97
2023-02-18T16:57:25.315Z,3.10
2023-02-18T16:59:55.582Z,2.88
2023-02-18T17:02:26.027Z,2.67
2023-02-18T17:04:59.118Z,3.05
2023-02-18T17:07:29.624Z,2.85
2023-02-18T17:09:59.841Z,2.90
2023-02-18T17:12:30.096Z,3.30
2023-02-18T17:15:00.438Z,3.20
2023-02-18T17:17:30.694Z,3.00
2023-02-18T17:20:00.919Z,2.72
2023-02-18T17:22:31.099Z,2.50
2023-02-18T17:25:01.297Z,3.20
2023-02-18T17:27:31.476Z,3.35
2023-02-18T17:30:01.674Z,2.53
2023-02-18T17:32:32.100Z,3.03
2023-02-18T17:35:02.456Z,2.90
2023-02-18T17:37:32.728Z,2.80
2023-02-18T17:40:03.172Z,3.05
2023-02-18T17:42:37.140Z,3.05
2023-02-18T17:45:17.705Z,2.80
2023-02-18T17:47:48.086Z,2.83
2023-02-18T17:50:19.119Z,3.20
2023-02-18T17:52:49.712Z,2.60
2023-02-18T17:55:23.825Z,2.58
2023-02-18T17:57:55.546Z,2.67
2023-02-18T18:00:38.247Z,2.60
2023-02-18T18:03:09.103Z,2.88
2023-02-18T18:05:41.708Z,2.65
2023-02-18T18:08:13.014Z,2.95
2023-02-18T18:10:50.400Z,2.78
2023-02-18T18:13:33.958Z,2.72
2023-02-18T18:16:04.289Z,2.72
2023-02-18T18:18:34.629Z,2.78
2023-02-18T18:21:08.146Z,2.85
2023-02-18T18:23:38.477Z,3.20
2023-02-18T18:26:08.779Z,2.97
2023-02-18T18:28:39.130Z,2.90
2023-02-18T18:31:12.161Z,2.92
2023-02-18T18:33:43.903Z,2.70
2023-02-18T18:36:14.368Z,3.40
2023-02-18T18:38:44.832Z,2.65
2023-02-18T18:41:23.945Z,2.90
2023-02-18T18:43:54.149Z,2.55
2023-02-18T18:46:24.391Z,2.72
2023-02-18T18:48:54.594Z,2.65
2023-02-18T18:51:30.419Z,3.05
2023-02-18T18:54:00.669Z,2.88
2023-02-18T18:56:30.985Z,2.75
2023-02-18T18:59:01.472Z,2.90
2023-02-18T19:01:32.448Z,2.90
2023-02-18T19:04:02.703Z,2.80
2023-02-18T19:06:33.047Z,2.95
2023-02-18T19:09:03.228Z,3.10
2023-02-18T19:11:33.398Z,2.63
2023-02-18T19:14:03.650Z,3.08
2023-02-18T19:16:40.046Z,2.33
2023-02-18T19:19:13.432Z,2.90
2023-02-18T19:21:44.588Z,2.78
2023-02-18T19:24:14.936Z,2.88
2023-02-18T19:26:45.158Z,2.90
2023-02-18T19:29:15.574Z,2.50
2023-02-18T19:31:46.700Z,2.65
2023-02-18T19:34:17.182Z,3.10
2023-02-18T19:36:48.357Z,2.50
2023-02-18T19:39:18.726Z,2.75
2023-02-18T19:41:48.949Z,2.83
2023-02-18T19:44:19.369Z,2.70
2023-02-18T19:46:49.773Z,2.10
2023-02-18T19:49:20.093Z,2.58
2023-02-18T19:51:50.569Z,2.40
2023-02-18T19:54:20.814Z,2.50
2023-02-18T19:56:51.116Z,2.30
2023-02-18T19:59:21.326Z,2.33
2023-02-18T20:01:51.638Z,2.40
2023-02-18T20:04:21.858Z,2.53
2023-02-18T20:06:52.106Z,2.58
2023-02-18T20:09:22.326Z,2.33
2023-02-18T20:11:52.797Z,2.08
2023-02-18T20:14:25.529Z,2.45
2023-02-18T20:16:56.531Z,2.47
2023-02-18T20:19:31.715Z,2.40
2023-02-18T20:22:03.047Z,2.30
2023-02-18T20:24:34.512Z,2.38
2023-02-18T20:27:04.835Z,2.38
2023-02-18T20:29:38.062Z,2.40
2023-02-18T20:32:09.201Z,2.42
2023-02-18T20:34:39.637Z,2.53
2023-02-18T20:37:09.996Z,2.45
2023-02-18T20:39:40.375Z,2.60
2023-02-18T20:42:16.350Z,2.72
2023-02-18T20:44:47.772Z,2.65
2023-02-18T20:47:18.490Z,2.50
2023-02-18T20:49:49.035Z,2.45
2023-02-18T20:52:19.824Z,2.58
2023-02-18T20:54:50.490Z,2.38
2023-02-18T20:57:20.849Z,2.65
2023-02-18T20:59:51.216Z,2.65
2023-02-18T21:02:21.533Z,2.65
2023-02-18T21:04:51.714Z,2.60
2023-02-18T21:07:22.165Z,2.13
2023-02-18T21:09:52.677Z,2.65
2023-02-18T21:12:23.483Z,3.35
2023-02-18T21:14:53.999Z,2.35
2023-02-18T21:17:24.618Z,2.35
2023-02-18T21:19:55.576Z,2.50
2023-02-18T21:22:26.095Z,2.50
2023-02-18T21:24:56.326Z,2.28
2023-02-18T21:27:26.670Z,2.60
2023-02-18T21:29:56.979Z,2.20
2023-02-18T21:32:27.547Z,2.40
2023-02-18T21:34:57.824Z,2.65
2023-02-18T21:37:28.114Z,2.65
2023-02-18T21:39:58.338Z,2.75
2023-02-18T21:42:28.566Z,2.67
2023-02-18T21:44:58.791Z,2.85
2023-02-18T21:47:29.013Z,3.20
2023-02-18T21:49:59.239Z,2.65
2023-02-18T21:52:33.908Z,2.90
2023-02-18T21:55:04.179Z,2.75
2023-02-18T21:57:34.679Z,2.92
2023-02-18T22:00:19.658Z,2.72
2023-02-18T22:02:50.645Z,2.67
2023-02-18T22:05:20.933Z,2.70
2023-02-18T22:07:51.201Z,2.80
2023-02-18T22:10:21.589Z,2.60
2023-02-18T22:12:51.855Z,2.53
2023-02-18T22:15:22.043Z,3.03
2023-02-18T22:17:52.277Z,2.28
2023-02-18T22:20:22.572Z,2.50
2023-02-18T22:22:52.876Z,2.53
2023-02-18T22:25:23.082Z,2.85
2023-02-18T22:27:53.306Z,3.22
2023-02-18T22:30:23.566Z,3.10
2023-02-18T22:32:53.857Z,3.13
2023-02-18T22:35:24.100Z,2.88
2023-02-18T22:37:54.380Z,2.90
2023-02-18T22:40:24.623Z,3.10
2023-02-18T22:42:55.134Z,2.20
2023-02-18T22:45:25.850Z,2.58
2023-02-18T22:47:56.478Z,2.70
2023-02-18T22:50:26.821Z,2.50
2023-02-18T22:52:57.105Z,2.80
2023-02-18T22:55:27.401Z,2.58
2023-02-18T22:57:57.674Z,2.50
2023-02-18T23:00:28.698Z,2.28
2023-02-18T23:02:59.199Z,2.58
2023-02-18T23:05:29.598Z,2.60
2023-02-18T23:07:59.977Z,2.45
2023-02-18T23:10:30.404Z,2.90
2023-02-18T23:13:00.876Z,2.10
2023-02-18T23:15:31.426Z,2.28
2023-02-18T23:18:01.896Z,2.30
2023-02-18T23:20:50.087Z,2.40
2023-02-18T23:23:20.388Z,2.42
2023-02-18T23:25:50.749Z,2.90
2023-02-18T23:28:21.041Z,2.33
2023-02-18T23:30:51.263Z,2.65
2023-02-18T23:33:21.560Z,2.60
2023-02-18T23:35:51.746Z,2.63
2023-02-18T23:38:28.063Z,2.67
2023-02-18T23:40:58.413Z,2.17
2023-02-18T23:43:32.144Z,2.38
2023-02-18T23:46:02.652Z,2.65
2023-02-18T23:48:38.183Z,2.25
2023-02-18T23:51:11.756Z,2.38
2023-02-18T23:53:42.450Z,2.30
2023-02-18T23:56:21.473Z,2.00
2023-02-18T23:58:55.215Z,1.80
